sensor_id;sensor_type;location;lat;lon;timestamp;P1;durP1;ratioP1;P2;durP2;ratioP2
70549;SDS011;58101;48.658;2.328;2023-02-28T00:01:20;19.92;;;7.90;;
70549;SDS011;58101;48.658;2.328;2023-02-28T00:03:46;16.40;;;7.82;;
70549;SDS011;58101;48.658;2.328;2023-02-28T00:06:11;18.58;;;7.60;;
70549;SDS011;58101;48.658;2.328;2023-02-28T00:08:37;18.83;;;7.97;;
70549;SDS011;58101;48.658;2.328;2023-02-28T00:11:05;15.90;;;7.32;;
70549;SDS011;58101;48.658;2.328;2023-02-28T00:13:37;16.08;;;6.88;;
70549;SDS011;58101;48.658;2.328;2023-02-28T00:16:05;14.20;;;7.28;;
70549;SDS011;58101;48.658;2.328;2023-02-28T00:18:34;15.73;;;7.25;;
70549;SDS011;58101;48.658;2.328;2023-02-28T00:20:59;14.30;;;6.60;;
70549;SDS011;58101;48.658;2.328;2023-02-28T00:23:25;14.88;;;7.07;;
70549;SDS011;58101;48.658;2.328;2023-02-28T00:25:51;17.80;;;7.53;;
70549;SDS011;58101;48.658;2.328;2023-02-28T00:28:17;14.40;;;6.93;;
70549;SDS011;58101;48.658;2.328;2023-02-28T00:30:44;16.98;;;7.20;;
70549;SDS011;58101;48.658;2.328;2023-02-28T00:33:09;13.55;;;6.75;;
70549;SDS011;58101;48.658;2.328;2023-02-28T00:35:35;19.90;;;6.82;;
70549;SDS011;58101;48.658;2.328;2023-02-28T00:38:01;14.85;;;7.05;;
70549;SDS011;58101;48.658;2.328;2023-02-28T00:40:27;14.50;;;6.07;;
70549;SDS011;58101;48.658;2.328;2023-02-28T00:42:53;17.63;;;6.88;;
70549;SDS011;58101;48.658;2.328;2023-02-28T00:45:18;16.65;;;6.57;;
70549;SDS011;58101;48.658;2.328;2023-02-28T00:47:44;14.52;;;6.15;;
70549;SDS011;58101;48.658;2.328;2023-02-28T00:50:11;14.30;;;7.03;;
70549;SDS011;58101;48.658;2.328;2023-02-28T00:52:37;13.18;;;6.25;;
70549;SDS011;58101;48.658;2.328;2023-02-28T00:55:03;13.18;;;5.93;;
70549;SDS011;58101;48.658;2.328;2023-02-28T00:57:29;16.83;;;5.95;;
70549;SDS011;58101;48.658;2.328;2023-02-28T00:59:55;14.20;;;6.25;;
70549;SDS011;58101;48.658;2.328;2023-02-28T01:02:21;13.23;;;5.80;;
70549;SDS011;58101;48.658;2.328;2023-02-28T01:04:48;15.65;;;5.88;;
70549;SDS011;58101;48.658;2.328;2023-02-28T01:07:13;14.48;;;5.57;;
70549;SDS011;58101;48.658;2.328;2023-02-28T01:09:39;13.65;;;5.38;;
70549;SDS011;58101;48.658;2.328;2023-02-28T01:12:06;14.90;;;6.10;;
70549;SDS011;58101;48.658;2.328;2023-02-28T01:14:32;14.77;;;5.45;;
70549;SDS011;58101;48.658;2.328;2023-02-28T01:16:58;13.65;;;5.85;;
70549;SDS011;58101;48.658;2.328;2023-02-28T01:19:23;13.10;;;5.60;;
70549;SDS011;58101;48.658;2.328;2023-02-28T01:21:49;14.60;;;5.50;;
70549;SDS011;58101;48.658;2.328;2023-02-28T01:24:15;15.20;;;5.20;;
70549;SDS011;58101;48.658;2.328;2023-02-28T01:26:40;12.55;;;5.20;;
70549;SDS011;58101;48.658;2.328;2023-02-28T01:29:06;10.85;;;5.03;;
70549;SDS011;58101;48.658;2.328;2023-02-28T01:31:32;15.68;;;5.80;;
70549;SDS011;58101;48.658;2.328;2023-02-28T01:33:57;14.82;;;5.45;;
70549;SDS011;58101;48.658;2.328;2023-02-28T01:36:23;11.68;;;5.40;;
70549;SDS011;58101;48.658;2.328;2023-02-28T01:38:49;12.35;;;5.63;;
70549;SDS011;58101;48.658;2.328;2023-02-28T01:41:20;11.98;;;5.07;;
70549;SDS011;58101;48.658;2.328;2023-02-28T01:46:12;13.63;;;5.43;;
70549;SDS011;58101;48.658;2.328;2023-02-28T01:48:40;13.95;;;5.18;;
70549;SDS011;58101;48.658;2.328;2023-02-28T01:51:15;11.10;;;4.85;;
70549;SDS011;58101;48.658;2.328;2023-02-28T01:53:49;11.88;;;4.93;;
70549;SDS011;58101;48.658;2.328;2023-02-28T01:56:26;12.25;;;4.78;;
70549;SDS011;58101;48.658;2.328;2023-02-28T01:58:55;13.50;;;4.97;;
70549;SDS011;58101;48.658;2.328;2023-02-28T02:01:22;10.82;;;4.75;;
70549;SDS011;58101;48.658;2.328;2023-02-28T02:03:51;12.85;;;4.88;;
70549;SDS011;58101;48.658;2.328;2023-02-28T02:06:22;13.73;;;5.10;;
70549;SDS011;58101;48.658;2.328;2023-02-28T02:09:07;11.07;;;4.40;;
70549;SDS011;58101;48.658;2.328;2023-02-28T02:11:33;13.40;;;4.68;;
70549;SDS011;58101;48.658;2.328;2023-02-28T02:24:28;13.82;;;4.35;;
70549;SDS011;58101;48.658;2.328;2023-02-28T02:27:22;9.32;;;4.20;;
70549;SDS011;58101;48.658;2.328;2023-02-28T02:30:19;12.55;;;4.78;;
70549;SDS011;58101;48.658;2.328;2023-02-28T02:35:56;10.30;;;4.70;;
70549;SDS011;58101;48.658;2.328;2023-02-28T02:38:37;12.68;;;4.82;;
70549;SDS011;58101;48.658;2.328;2023-02-28T02:41:28;10.80;;;4.57;;
70549;SDS011;58101;48.658;2.328;2023-02-28T02:44:06;10.65;;;4.30;;
70549;SDS011;58101;48.658;2.328;2023-02-28T02:51:41;11.38;;;4.32;;
70549;SDS011;58101;48.658;2.328;2023-02-28T02:56:54;11.02;;;4.25;;
70549;SDS011;58101;48.658;2.328;2023-02-28T02:59:26;12.75;;;4.45;;
70549;SDS011;58101;48.658;2.328;2023-02-28T03:04:28;9.93;;;4.20;;
70549;SDS011;58101;48.658;2.328;2023-02-28T03:06:58;13.57;;;4.45;;
70549;SDS011;58101;48.658;2.328;2023-02-28T03:09:24;11.90;;;4.78;;
70549;SDS011;58101;48.658;2.328;2023-02-28T03:11:51;12.23;;;4.57;;
70549;SDS011;58101;48.658;2.328;2023-02-28T03:20:05;11.50;;;4.38;;
70549;SDS011;58101;48.658;2.328;2023-02-28T03:22:50;10.57;;;4.65;;
70549;SDS011;58101;48.658;2.328;2023-02-28T03:28:00;14.10;;;4.80;;
70549;SDS011;58101;48.658;2.328;2023-02-28T03:33:08;14.10;;;4.55;;
70549;SDS011;58101;48.658;2.328;2023-02-28T03:35:45;13.68;;;4.43;;
70549;SDS011;58101;48.658;2.328;2023-02-28T03:38:29;11.18;;;4.55;;
70549;SDS011;58101;48.658;2.328;2023-02-28T03:41:05;10.68;;;4.07;;
70549;SDS011;58101;48.658;2.328;2023-02-28T03:43:38;10.70;;;4.45;;
70549;SDS011;58101;48.658;2.328;2023-02-28T03:46:09;11.57;;;4.25;;
70549;SDS011;58101;48.658;2.328;2023-02-28T03:48:48;12.07;;;4.35;;
70549;SDS011;58101;48.658;2.328;2023-02-28T03:51:36;11.40;;;4.47;;
70549;SDS011;58101;48.658;2.328;2023-02-28T03:54:07;11.20;;;4.72;;
70549;SDS011;58101;48.658;2.328;2023-02-28T03:56:38;13.25;;;4.72;;
70549;SDS011;58101;48.658;2.328;2023-02-28T03:59:15;11.65;;;4.40;;
70549;SDS011;58101;48.658;2.328;2023-02-28T04:02:21;12.25;;;4.72;;
70549;SDS011;58101;48.658;2.328;2023-02-28T04:04:46;11.23;;;4.45;;
70549;SDS011;58101;48.658;2.328;2023-02-28T04:07:13;12.38;;;4.35;;
70549;SDS011;58101;48.658;2.328;2023-02-28T04:09:40;11.20;;;4.22;;
70549;SDS011;58101;48.658;2.328;2023-02-28T04:12:06;13.73;;;4.60;;
70549;SDS011;58101;48.658;2.328;2023-02-28T04:14:32;14.73;;;4.38;;
70549;SDS011;58101;48.658;2.328;2023-02-28T04:16:58;13.00;;;4.50;;
70549;SDS011;58101;48.658;2.328;2023-02-28T04:19:23;16.00;;;5.03;;
70549;SDS011;58101;48.658;2.328;2023-02-28T04:21:50;15.02;;;4.50;;
70549;SDS011;58101;48.658;2.328;2023-02-28T04:24:18;14.18;;;5.00;;
70549;SDS011;58101;48.658;2.328;2023-02-28T04:26:52;13.40;;;4.53;;
70549;SDS011;58101;48.658;2.328;2023-02-28T04:29:20;14.52;;;4.90;;
70549;SDS011;58101;48.658;2.328;2023-02-28T04:31:48;11.82;;;4.47;;
70549;SDS011;58101;48.658;2.328;2023-02-28T04:34:14;12.00;;;4.18;;
70549;SDS011;58101;48.658;2.328;2023-02-28T04:36:40;12.20;;;4.30;;
70549;SDS011;58101;48.658;2.328;2023-02-28T04:39:05;9.77;;;3.85;;
70549;SDS011;58101;48.658;2.328;2023-02-28T04:41:31;11.00;;;4.25;;
70549;SDS011;58101;48.658;2.328;2023-02-28T04:43:57;9.48;;;3.80;;
70549;SDS011;58101;48.658;2.328;2023-02-28T04:46:22;9.65;;;3.75;;
70549;SDS011;58101;48.658;2.328;2023-02-28T04:48:48;10.65;;;4.00;;
70549;SDS011;58101;48.658;2.328;2023-02-28T04:51:14;9.50;;;3.80;;
70549;SDS011;58101;48.658;2.328;2023-02-28T04:53:41;9.15;;;3.67;;
70549;SDS011;58101;48.658;2.328;2023-02-28T04:56:09;15.55;;;3.92;;
70549;SDS011;58101;48.658;2.328;2023-02-28T04:58:37;9.88;;;3.85;;
70549;SDS011;58101;48.658;2.328;2023-02-28T05:01:03;9.32;;;3.70;;
70549;SDS011;58101;48.658;2.328;2023-02-28T05:03:37;10.95;;;4.05;;
70549;SDS011;58101;48.658;2.328;2023-02-28T05:06:05;9.60;;;3.72;;
70549;SDS011;58101;48.658;2.328;2023-02-28T05:08:32;8.73;;;3.63;;
70549;SDS011;58101;48.658;2.328;2023-02-28T05:10:57;13.32;;;4.43;;
70549;SDS011;58101;48.658;2.328;2023-02-28T05:13:25;12.55;;;4.10;;
70549;SDS011;58101;48.658;2.328;2023-02-28T05:15:51;9.27;;;3.58;;
70549;SDS011;58101;48.658;2.328;2023-02-28T05:18:17;11.35;;;3.70;;
70549;SDS011;58101;48.658;2.328;2023-02-28T05:20:43;8.95;;;3.30;;
70549;SDS011;58101;48.658;2.328;2023-02-28T05:23:10;9.52;;;3.67;;
70549;SDS011;58101;48.658;2.328;2023-02-28T05:25:37;9.82;;;3.60;;
70549;SDS011;58101;48.658;2.328;2023-02-28T05:28:03;9.93;;;3.50;;
70549;SDS011;58101;48.658;2.328;2023-02-28T05:30:30;9.63;;;3.30;;
70549;SDS011;58101;48.658;2.328;2023-02-28T05:32:56;9.93;;;3.30;;
70549;SDS011;58101;48.658;2.328;2023-02-28T05:35:23;11.13;;;3.55;;
70549;SDS011;58101;48.658;2.328;2023-02-28T05:37:49;12.07;;;3.42;;
70549;SDS011;58101;48.658;2.328;2023-02-28T05:40:15;8.88;;;3.60;;
70549;SDS011;58101;48.658;2.328;2023-02-28T05:42:41;11.23;;;3.53;;
70549;SDS011;58101;48.658;2.328;2023-02-28T05:45:07;10.13;;;3.67;;
70549;SDS011;58101;48.658;2.328;2023-02-28T05:47:34;9.68;;;3.03;;
70549;SDS011;58101;48.658;2.328;2023-02-28T05:50:00;9.20;;;3.13;;
70549;SDS011;58101;48.658;2.328;2023-02-28T05:52:27;9.00;;;3.20;;
70549;SDS011;58101;48.658;2.328;2023-02-28T05:54:53;8.90;;;3.25;;
70549;SDS011;58101;48.658;2.328;2023-02-28T05:57:18;11.38;;;3.60;;
70549;SDS011;58101;48.658;2.328;2023-02-28T05:59:44;9.57;;;3.50;;
70549;SDS011;58101;48.658;2.328;2023-02-28T06:02:14;8.73;;;3.25;;
70549;SDS011;58101;48.658;2.328;2023-02-28T06:04:41;9.40;;;3.60;;
70549;SDS011;58101;48.658;2.328;2023-02-28T06:07:08;11.85;;;4.13;;
70549;SDS011;58101;48.658;2.328;2023-02-28T06:09:35;11.80;;;3.90;;
70549;SDS011;58101;48.658;2.328;2023-02-28T06:12:01;11.27;;;3.38;;
70549;SDS011;58101;48.658;2.328;2023-02-28T06:14:30;8.80;;;3.13;;
70549;SDS011;58101;48.658;2.328;2023-02-28T06:16:56;10.38;;;3.63;;
70549;SDS011;58101;48.658;2.328;2023-02-28T06:19:22;10.52;;;4.00;;
70549;SDS011;58101;48.658;2.328;2023-02-28T06:21:50;11.80;;;4.43;;
70549;SDS011;58101;48.658;2.328;2023-02-28T06:24:23;12.10;;;4.43;;
70549;SDS011;58101;48.658;2.328;2023-02-28T06:26:50;12.10;;;4.57;;
70549;SDS011;58101;48.658;2.328;2023-02-28T06:29:16;12.65;;;4.28;;
70549;SDS011;58101;48.658;2.328;2023-02-28T06:31:43;11.73;;;4.28;;
70549;SDS011;58101;48.658;2.328;2023-02-28T06:34:09;14.27;;;4.75;;
70549;SDS011;58101;48.658;2.328;2023-02-28T06:36:43;14.30;;;4.68;;
70549;SDS011;58101;48.658;2.328;2023-02-28T06:39:08;14.95;;;4.60;;
70549;SDS011;58101;48.658;2.328;2023-02-28T06:41:34;12.85;;;4.30;;
70549;SDS011;58101;48.658;2.328;2023-02-28T06:44:03;13.75;;;4.78;;
70549;SDS011;58101;48.658;2.328;2023-02-28T06:46:30;14.95;;;4.85;;
70549;SDS011;58101;48.658;2.328;2023-02-28T06:48:56;11.77;;;4.65;;
70549;SDS011;58101;48.658;2.328;2023-02-28T06:51:22;13.48;;;4.50;;
70549;SDS011;58101;48.658;2.328;2023-02-28T06:53:49;13.93;;;4.95;;
70549;SDS011;58101;48.658;2.328;2023-02-28T06:56:16;11.65;;;4.40;;
70549;SDS011;58101;48.658;2.328;2023-02-28T06:58:46;14.10;;;4.60;;
70549;SDS011;58101;48.658;2.328;2023-02-28T07:01:17;12.48;;;4.82;;
70549;SDS011;58101;48.658;2.328;2023-02-28T07:03:43;13.18;;;5.38;;
70549;SDS011;58101;48.658;2.328;2023-02-28T07:06:09;11.77;;;5.40;;
70549;SDS011;58101;48.658;2.328;2023-02-28T07:08:35;13.65;;;5.13;;
70549;SDS011;58101;48.658;2.328;2023-02-28T07:11:01;12.10;;;4.65;;
70549;SDS011;58101;48.658;2.328;2023-02-28T07:13:27;13.93;;;5.05;;
70549;SDS011;58101;48.658;2.328;2023-02-28T07:15:54;14.65;;;5.85;;
70549;SDS011;58101;48.658;2.328;2023-02-28T07:18:21;13.57;;;5.45;;
70549;SDS011;58101;48.658;2.328;2023-02-28T07:20:47;15.38;;;6.28;;
70549;SDS011;58101;48.658;2.328;2023-02-28T07:23:13;13.82;;;5.60;;
70549;SDS011;58101;48.658;2.328;2023-02-28T07:25:38;15.90;;;6.15;;
70549;SDS011;58101;48.658;2.328;2023-02-28T07:28:04;14.70;;;5.93;;
70549;SDS011;58101;48.658;2.328;2023-02-28T07:30:30;14.82;;;5.70;;
70549;SDS011;58101;48.658;2.328;2023-02-28T07:32:55;20.25;;;7.00;;
70549;SDS011;58101;48.658;2.328;2023-02-28T07:35:22;20.20;;;6.47;;
70549;SDS011;58101;48.658;2.328;2023-02-28T07:37:47;15.52;;;6.30;;
70549;SDS011;58101;48.658;2.328;2023-02-28T07:40:13;16.48;;;6.03;;
70549;SDS011;58101;48.658;2.328;2023-02-28T07:42:40;14.52;;;6.78;;
70549;SDS011;58101;48.658;2.328;2023-02-28T07:45:07;17.08;;;7.35;;
70549;SDS011;58101;48.658;2.328;2023-02-28T07:47:33;20.23;;;7.30;;
70549;SDS011;58101;48.658;2.328;2023-02-28T07:49:59;16.48;;;7.15;;
70549;SDS011;58101;48.658;2.328;2023-02-28T07:52:25;15.95;;;6.97;;
70549;SDS011;58101;48.658;2.328;2023-02-28T07:54:51;16.67;;;6.82;;
70549;SDS011;58101;48.658;2.328;2023-02-28T07:57:17;16.60;;;6.72;;
70549;SDS011;58101;48.658;2.328;2023-02-28T07:59:43;21.27;;;6.65;;
70549;SDS011;58101;48.658;2.328;2023-02-28T08:02:15;17.42;;;7.63;;
70549;SDS011;58101;48.658;2.328;2023-02-28T08:04:42;15.32;;;6.80;;
70549;SDS011;58101;48.658;2.328;2023-02-28T08:07:09;14.35;;;6.75;;
70549;SDS011;58101;48.658;2.328;2023-02-28T08:09:41;14.70;;;6.35;;
70549;SDS011;58101;48.658;2.328;2023-02-28T08:12:07;16.38;;;6.45;;
70549;SDS011;58101;48.658;2.328;2023-02-28T08:14:33;14.55;;;6.68;;
70549;SDS011;58101;48.658;2.328;2023-02-28T08:16:59;17.73;;;6.72;;
70549;SDS011;58101;48.658;2.328;2023-02-28T08:19:25;16.02;;;6.95;;
70549;SDS011;58101;48.658;2.328;2023-02-28T08:21:51;14.82;;;6.55;;
70549;SDS011;58101;48.658;2.328;2023-02-28T08:24:16;16.45;;;6.95;;
70549;SDS011;58101;48.658;2.328;2023-02-28T08:26:42;13.45;;;6.68;;
70549;SDS011;58101;48.658;2.328;2023-02-28T08:29:08;12.43;;;6.55;;
70549;SDS011;58101;48.658;2.328;2023-02-28T08:31:33;14.23;;;6.78;;
70549;SDS011;58101;48.658;2.328;2023-02-28T08:36:30;11.68;;;6.32;;
70549;SDS011;58101;48.658;2.328;2023-02-28T08:38:56;14.48;;;7.20;;
70549;SDS011;58101;48.658;2.328;2023-02-28T08:41:22;11.85;;;6.28;;
70549;SDS011;58101;48.658;2.328;2023-02-28T08:43:47;13.68;;;7.25;;
70549;SDS011;58101;48.658;2.328;2023-02-28T08:46:13;13.98;;;7.45;;
70549;SDS011;58101;48.658;2.328;2023-02-28T08:48:39;13.15;;;6.75;;
70549;SDS011;58101;48.658;2.328;2023-02-28T08:51:09;13.57;;;6.35;;
70549;SDS011;58101;48.658;2.328;2023-02-28T08:53:36;20.70;;;7.15;;
70549;SDS011;58101;48.658;2.328;2023-02-28T08:56:13;13.25;;;6.47;;
70549;SDS011;58101;48.658;2.328;2023-02-28T08:58:41;17.05;;;7.20;;
70549;SDS011;58101;48.658;2.328;2023-02-28T09:01:12;12.95;;;6.22;;
70549;SDS011;58101;48.658;2.328;2023-02-28T09:03:40;11.30;;;6.10;;
70549;SDS011;58101;48.658;2.328;2023-02-28T09:06:06;11.52;;;5.95;;
70549;SDS011;58101;48.658;2.328;2023-02-28T09:08:33;10.82;;;5.97;;
70549;SDS011;58101;48.658;2.328;2023-02-28T09:10:58;13.30;;;6.40;;
70549;SDS011;58101;48.658;2.328;2023-02-28T09:13:25;11.73;;;6.20;;
70549;SDS011;58101;48.658;2.328;2023-02-28T09:15:51;9.43;;;5.10;;
70549;SDS011;58101;48.658;2.328;2023-02-28T09:18:17;10.30;;;5.40;;
70549;SDS011;58101;48.658;2.328;2023-02-28T09:20:44;11.00;;;5.28;;
70549;SDS011;58101;48.658;2.328;2023-02-28T09:23:10;11.38;;;4.85;;
70549;SDS011;58101;48.658;2.328;2023-02-28T09:25:37;10.50;;;5.53;;
70549;SDS011;58101;48.658;2.328;2023-02-28T09:30:36;12.82;;;5.40;;
70549;SDS011;58101;48.658;2.328;2023-02-28T09:33:02;9.82;;;5.07;;
70549;SDS011;58101;48.658;2.328;2023-02-28T09:35:28;12.32;;;5.05;;
70549;SDS011;58101;48.658;2.328;2023-02-28T09:37:55;9.90;;;4.90;;
70549;SDS011;58101;48.658;2.328;2023-02-28T09:40:23;10.65;;;5.47;;
70549;SDS011;58101;48.658;2.328;2023-02-28T09:42:51;8.63;;;4.80;;
70549;SDS011;58101;48.658;2.328;2023-02-28T09:45:22;8.27;;;4.68;;
70549;SDS011;58101;48.658;2.328;2023-02-28T09:47:59;11.27;;;5.22;;
70549;SDS011;58101;48.658;2.328;2023-02-28T09:53:19;11.05;;;4.95;;
70549;SDS011;58101;48.658;2.328;2023-02-28T09:55:58;11.95;;;5.22;;
70549;SDS011;58101;48.658;2.328;2023-02-28T09:58:49;10.60;;;5.45;;
70549;SDS011;58101;48.658;2.328;2023-02-28T10:01:24;10.95;;;5.63;;
70549;SDS011;58101;48.658;2.328;2023-02-28T10:07:00;11.23;;;4.75;;
70549;SDS011;58101;48.658;2.328;2023-02-28T10:09:31;9.55;;;4.55;;
70549;SDS011;58101;48.658;2.328;2023-02-28T10:12:05;10.15;;;4.80;;
70549;SDS011;58101;48.658;2.328;2023-02-28T10:14:32;7.60;;;4.35;;
70549;SDS011;58101;48.658;2.328;2023-02-28T10:17:01;9.52;;;4.35;;
70549;SDS011;58101;48.658;2.328;2023-02-28T10:22:19;9.32;;;4.22;;
70549;SDS011;58101;48.658;2.328;2023-02-28T10:24:50;7.30;;;3.78;;
70549;SDS011;58101;48.658;2.328;2023-02-28T10:29:47;8.20;;;4.20;;
70549;SDS011;58101;48.658;2.328;2023-02-28T10:32:21;9.02;;;4.38;;
70549;SDS011;58101;48.658;2.328;2023-02-28T10:34:57;9.50;;;4.75;;
70549;SDS011;58101;48.658;2.328;2023-02-28T10:37:25;8.98;;;3.78;;
70549;SDS011;58101;48.658;2.328;2023-02-28T10:39:51;8.02;;;4.00;;
70549;SDS011;58101;48.658;2.328;2023-02-28T10:44:44;10.82;;;3.83;;
70549;SDS011;58101;48.658;2.328;2023-02-28T10:47:19;8.77;;;3.50;;
70549;SDS011;58101;48.658;2.328;2023-02-28T10:49:48;7.43;;;3.90;;
70549;SDS011;58101;48.658;2.328;2023-02-28T10:52:32;9.25;;;3.63;;
70549;SDS011;58101;48.658;2.328;2023-02-28T10:57:47;37.63;;;6.05;;
70549;SDS011;58101;48.658;2.328;2023-02-28T11:00:16;15.23;;;4.35;;
70549;SDS011;58101;48.658;2.328;2023-02-28T11:02:47;9.85;;;4.07;;
70549;SDS011;58101;48.658;2.328;2023-02-28T11:05:29;8.70;;;3.95;;
70549;SDS011;58101;48.658;2.328;2023-02-28T11:10:32;8.50;;;4.00;;
70549;SDS011;58101;48.658;2.328;2023-02-28T11:13:00;8.15;;;3.65;;
70549;SDS011;58101;48.658;2.328;2023-02-28T11:15:30;8.73;;;3.88;;
70549;SDS011;58101;48.658;2.328;2023-02-28T11:18:01;13.45;;;6.10;;
70549;SDS011;58101;48.658;2.328;2023-02-28T11:21:02;13.10;;;6.75;;
70549;SDS011;58101;48.658;2.328;2023-02-28T11:23:29;9.27;;;4.50;;
70549;SDS011;58101;48.658;2.328;2023-02-28T11:25:59;12.00;;;6.03;;
70549;SDS011;58101;48.658;2.328;2023-02-28T11:33:30;11.95;;;5.32;;
70549;SDS011;58101;48.658;2.328;2023-02-28T11:36:00;9.68;;;4.57;;
70549;SDS011;58101;48.658;2.328;2023-02-28T11:38:29;12.23;;;5.63;;
70549;SDS011;58101;48.658;2.328;2023-02-28T11:46:01;11.48;;;4.72;;
70549;SDS011;58101;48.658;2.328;2023-02-28T11:54:17;9.18;;;4.22;;
70549;SDS011;58101;48.658;2.328;2023-02-28T11:59:48;9.18;;;4.65;;
70549;SDS011;58101;48.658;2.328;2023-02-28T12:02:28;10.60;;;5.03;;
70549;SDS011;58101;48.658;2.328;2023-02-28T12:07:56;7.93;;;3.70;;
70549;SDS011;58101;48.658;2.328;2023-02-28T12:10:28;7.22;;;3.58;;
70549;SDS011;58101;48.658;2.328;2023-02-28T12:13:12;8.68;;;3.80;;
70549;SDS011;58101;48.658;2.328;2023-02-28T12:16:31;8.05;;;3.80;;
70549;SDS011;58101;48.658;2.328;2023-02-28T12:21:42;13.40;;;5.95;;
70549;SDS011;58101;48.658;2.328;2023-02-28T12:27:15;7.72;;;3.70;;
70549;SDS011;58101;48.658;2.328;2023-02-28T12:29:52;8.65;;;3.60;;
70549;SDS011;58101;48.658;2.328;2023-02-28T12:32:25;11.75;;;5.22;;
70549;SDS011;58101;48.658;2.328;2023-02-28T12:43:00;9.25;;;4.10;;
70549;SDS011;58101;48.658;2.328;2023-02-28T12:45:36;8.23;;;4.13;;
70549;SDS011;58101;48.658;2.328;2023-02-28T12:48:37;12.13;;;4.55;;
70549;SDS011;58101;48.658;2.328;2023-02-28T12:51:15;7.97;;;3.70;;
70549;SDS011;58101;48.658;2.328;2023-02-28T12:56:42;7.70;;;3.63;;
70549;SDS011;58101;48.658;2.328;2023-02-28T13:09:51;7.47;;;3.30;;
70549;SDS011;58101;48.658;2.328;2023-02-28T13:12:25;9.35;;;3.50;;
70549;SDS011;58101;48.658;2.328;2023-02-28T13:15:00;8.55;;;3.75;;
70549;SDS011;58101;48.658;2.328;2023-02-28T13:17:37;6.93;;;3.22;;
70549;SDS011;58101;48.658;2.328;2023-02-28T13:20:14;10.88;;;3.80;;
70549;SDS011;58101;48.658;2.328;2023-02-28T13:22:44;7.72;;;3.30;;
70549;SDS011;58101;48.658;2.328;2023-02-28T13:27:59;9.93;;;4.15;;
70549;SDS011;58101;48.658;2.328;2023-02-28T13:33:31;9.07;;;3.55;;
70549;SDS011;58101;48.658;2.328;2023-02-28T13:44:06;12.05;;;3.67;;
70549;SDS011;58101;48.658;2.328;2023-02-28T13:49:27;8.52;;;3.47;;
70549;SDS011;58101;48.658;2.328;2023-02-28T13:57:30;10.10;;;3.70;;
70549;SDS011;58101;48.658;2.328;2023-02-28T14:00:27;7.30;;;3.15;;
70549;SDS011;58101;48.658;2.328;2023-02-28T14:03:18;10.80;;;3.50;;
70549;SDS011;58101;48.658;2.328;2023-02-28T14:06:07;11.05;;;4.63;;
70549;SDS011;58101;48.658;2.328;2023-02-28T14:08:55;9.18;;;4.10;;
70549;SDS011;58101;48.658;2.328;2023-02-28T14:11:39;9.93;;;3.97;;
70549;SDS011;58101;48.658;2.328;2023-02-28T14:14:07;12.82;;;5.75;;
70549;SDS011;58101;48.658;2.328;2023-02-28T14:16:46;8.93;;;3.65;;
70549;SDS011;58101;48.658;2.328;2023-02-28T14:19:25;7.28;;;3.17;;
70549;SDS011;58101;48.658;2.328;2023-02-28T14:22:01;10.48;;;4.57;;
70549;SDS011;58101;48.658;2.328;2023-02-28T14:27:29;9.00;;;3.58;;
70549;SDS011;58101;48.658;2.328;2023-02-28T14:30:15;10.30;;;4.00;;
70549;SDS011;58101;48.658;2.328;2023-02-28T14:35:42;7.60;;;3.63;;
70549;SDS011;58101;48.658;2.328;2023-02-28T14:38:30;7.97;;;3.40;;
70549;SDS011;58101;48.658;2.328;2023-02-28T14:41:00;7.78;;;2.85;;
70549;SDS011;58101;48.658;2.328;2023-02-28T14:43:31;8.27;;;3.40;;
70549;SDS011;58101;48.658;2.328;2023-02-28T14:45:59;7.75;;;3.28;;
70549;SDS011;58101;48.658;2.328;2023-02-28T14:48:27;7.78;;;3.40;;
70549;SDS011;58101;48.658;2.328;2023-02-28T14:50:55;8.30;;;3.25;;
70549;SDS011;58101;48.658;2.328;2023-02-28T14:53:23;8.20;;;3.35;;
70549;SDS011;58101;48.658;2.328;2023-02-28T14:55:52;7.53;;;3.22;;
70549;SDS011;58101;48.658;2.328;2023-02-28T14:58:21;7.47;;;3.03;;
70549;SDS011;58101;48.658;2.328;2023-02-28T15:00:53;7.68;;;3.28;;
70549;SDS011;58101;48.658;2.328;2023-02-28T15:06:01;7.07;;;3.30;;
70549;SDS011;58101;48.658;2.328;2023-02-28T15:08:30;7.65;;;3.55;;
70549;SDS011;58101;48.658;2.328;2023-02-28T15:11:04;7.70;;;3.25;;
70549;SDS011;58101;48.658;2.328;2023-02-28T15:13:36;10.68;;;4.38;;
70549;SDS011;58101;48.658;2.328;2023-02-28T15:18:46;7.45;;;3.17;;
70549;SDS011;58101;48.658;2.328;2023-02-28T15:21:15;7.05;;;3.10;;
70549;SDS011;58101;48.658;2.328;2023-02-28T15:23:48;8.38;;;3.55;;
70549;SDS011;58101;48.658;2.328;2023-02-28T15:26:16;7.97;;;3.40;;
70549;SDS011;58101;48.658;2.328;2023-02-28T15:28:57;8.90;;;3.67;;
70549;SDS011;58101;48.658;2.328;2023-02-28T15:31:31;9.52;;;3.80;;
70549;SDS011;58101;48.658;2.328;2023-02-28T15:34:04;8.23;;;3.40;;
70549;SDS011;58101;48.658;2.328;2023-02-28T15:36:31;25.02;;;9.48;;
70549;SDS011;58101;48.658;2.328;2023-02-28T15:38:58;8.63;;;4.07;;
70549;SDS011;58101;48.658;2.328;2023-02-28T15:41:35;7.53;;;3.28;;
70549;SDS011;58101;48.658;2.328;2023-02-28T15:44:22;8.98;;;3.38;;
70549;SDS011;58101;48.658;2.328;2023-02-28T15:47:02;15.60;;;7.40;;
70549;SDS011;58101;48.658;2.328;2023-02-28T15:49:32;15.35;;;6.63;;
70549;SDS011;58101;48.658;2.328;2023-02-28T15:52:05;10.63;;;3.97;;
70549;SDS011;58101;48.658;2.328;2023-02-28T15:54:34;10.07;;;4.00;;
70549;SDS011;58101;48.658;2.328;2023-02-28T15:57:06;9.55;;;3.85;;
70549;SDS011;58101;48.658;2.328;2023-02-28T15:59:36;10.10;;;3.63;;
70549;SDS011;58101;48.658;2.328;2023-02-28T16:02:03;12.32;;;5.25;;
70549;SDS011;58101;48.658;2.328;2023-02-28T16:07:38;11.43;;;3.80;;
70549;SDS011;58101;48.658;2.328;2023-02-28T16:10:06;9.82;;;4.03;;
70549;SDS011;58101;48.658;2.328;2023-02-28T16:12:35;8.43;;;3.72;;
70549;SDS011;58101;48.658;2.328;2023-02-28T16:15:06;13.27;;;4.63;;
70549;SDS011;58101;48.658;2.328;2023-02-28T16:17:51;10.23;;;3.40;;
70549;SDS011;58101;48.658;2.328;2023-02-28T16:20:19;15.93;;;6.53;;
70549;SDS011;58101;48.658;2.328;2023-02-28T16:22:49;15.82;;;5.45;;
70549;SDS011;58101;48.658;2.328;2023-02-28T16:25:16;10.00;;;3.90;;
70549;SDS011;58101;48.658;2.328;2023-02-28T16:27:43;9.10;;;3.72;;
70549;SDS011;58101;48.658;2.328;2023-02-28T16:30:16;7.35;;;2.90;;
70549;SDS011;58101;48.658;2.328;2023-02-28T16:32:45;8.90;;;3.90;;
70549;SDS011;58101;48.658;2.328;2023-02-28T16:35:11;9.70;;;3.90;;
70549;SDS011;58101;48.658;2.328;2023-02-28T16:37:38;9.07;;;3.47;;
70549;SDS011;58101;48.658;2.328;2023-02-28T16:40:04;9.50;;;3.65;;
70549;SDS011;58101;48.658;2.328;2023-02-28T16:42:31;8.35;;;3.60;;
70549;SDS011;58101;48.658;2.328;2023-02-28T16:44:57;10.40;;;3.92;;
70549;SDS011;58101;48.658;2.328;2023-02-28T16:47:23;10.23;;;4.07;;
70549;SDS011;58101;48.658;2.328;2023-02-28T16:49:49;12.32;;;4.20;;
70549;SDS011;58101;48.658;2.328;2023-02-28T16:52:14;9.13;;;3.35;;
70549;SDS011;58101;48.658;2.328;2023-02-28T16:54:40;9.10;;;3.80;;
70549;SDS011;58101;48.658;2.328;2023-02-28T16:57:08;9.02;;;3.60;;
70549;SDS011;58101;48.658;2.328;2023-02-28T16:59:55;9.07;;;3.80;;
70549;SDS011;58101;48.658;2.328;2023-02-28T17:02:20;9.27;;;4.35;;
70549;SDS011;58101;48.658;2.328;2023-02-28T17:04:46;9.15;;;4.20;;
70549;SDS011;58101;48.658;2.328;2023-02-28T17:07:13;9.52;;;3.85;;
70549;SDS011;58101;48.658;2.328;2023-02-28T17:09:41;11.38;;;4.53;;
70549;SDS011;58101;48.658;2.328;2023-02-28T17:12:08;10.77;;;4.07;;
70549;SDS011;58101;48.658;2.328;2023-02-28T17:14:34;8.55;;;3.53;;
70549;SDS011;58101;48.658;2.328;2023-02-28T17:17:00;7.78;;;3.20;;
70549;SDS011;58101;48.658;2.328;2023-02-28T17:19:25;9.63;;;4.05;;
70549;SDS011;58101;48.658;2.328;2023-02-28T17:21:53;11.50;;;4.43;;